sensor_id;sensor_type;location;lat;lon;timestamp;pressure;altitude;pressure_sealevel;temperature;humidity
21879;BME280;27908;42.708;23.278;2023-07-13T00:01:25;50094.13;;;-136.69;63.79
21879;BME280;27908;42.708;23.278;2023-07-13T00:03:50;50117.78;;;-136.69;63.25
21879;BME280;27908;42.708;23.278;2023-07-13T00:06:16;50121.72;;;-136.69;63.18
21879;BME280;27908;42.708;23.278;2023-07-13T00:08:41;50119.75;;;-136.69;63.25
21879;BME280;27908;42.708;23.278;2023-07-13T00:11:06;50135.50;;;-136.69;63.50
21879;BME280;27908;42.708;23.278;2023-07-13T00:13:32;50105.94;;;-136.69;64.02
21879;BME280;27908;42.708;23.278;2023-07-13T00:15:58;50123.69;;;-136.69;64.00
21879;BME280;27908;42.708;23.278;2023-07-13T00:18:24;50117.78;;;-136.69;63.28
21879;BME280;27908;42.708;23.278;2023-07-13T00:20:50;50094.13;;;-136.69;63.54
21879;BME280;27908;42.708;23.278;2023-07-13T00:23:15;50072.47;;;-136.69;65.32
21879;BME280;27908;42.708;23.278;2023-07-13T00:25:42;50098.06;;;-136.69;65.95
21879;BME280;27908;42.708;23.278;2023-07-13T00:28:08;50090.19;;;-136.69;66.70
21879;BME280;27908;42.708;23.278;2023-07-13T00:30:33;50098.06;;;-136.69;66.56
21879;BME280;27908;42.708;23.278;2023-07-13T00:32:58;50072.47;;;-136.69;66.47
21879;BME280;27908;42.708;23.278;2023-07-13T00:35:27;50094.13;;;-136.69;67.51
21879;BME280;27908;42.708;23.278;2023-07-13T00:37:52;50078.38;;;-136.69;67.98
21879;BME280;27908;42.708;23.278;2023-07-13T00:40:18;50048.84;;;-136.69;68.73
21879;BME280;27908;42.708;23.278;2023-07-13T00:42:43;50084.28;;;-136.69;69.97
21879;BME280;27908;42.708;23.278;2023-07-13T00:47:38;50050.81;;;-136.69;71.29
21879;BME280;27908;42.708;23.278;2023-07-13T00:50:07;50052.78;;;-136.69;72.29
21879;BME280;27908;42.708;23.278;2023-07-13T00:52:35;50037.03;;;-136.69;73.05
21879;BME280;27908;42.708;23.278;2023-07-13T00:55:01;50025.22;;;-136.69;75.98
21879;BME280;27908;42.708;23.278;2023-07-13T00:57:27;50039.00;;;-136.69;75.17
21879;BME280;27908;42.708;23.278;2023-07-13T00:59:56;50044.91;;;-136.69;75.08
21879;BME280;27908;42.708;23.278;2023-07-13T01:02:24;50040.97;;;-136.69;75.05
21879;BME280;27908;42.708;23.278;2023-07-13T01:04:49;50039.00;;;-136.69;75.35
21879;BME280;27908;42.708;23.278;2023-07-13T01:07:15;50042.94;;;-136.69;75.06
21879;BME280;27908;42.708;23.278;2023-07-13T01:09:40;50027.19;;;-136.69;74.64
21879;BME280;27908;42.708;23.278;2023-07-13T01:12:06;50027.19;;;-136.69;75.20
21879;BME280;27908;42.708;23.278;2023-07-13T01:14:32;50044.91;;;-136.69;75.40
21879;BME280;27908;42.708;23.278;2023-07-13T01:16:58;50054.75;;;-136.69;75.52
21879;BME280;27908;42.708;23.278;2023-07-13T01:19:38;50021.28;;;-136.69;76.85
21879;BME280;27908;42.708;23.278;2023-07-13T01:22:18;49999.63;;;-136.69;76.97
21879;BME280;27908;42.708;23.278;2023-07-13T01:24:47;50029.16;;;-136.69;77.37
21879;BME280;27908;42.708;23.278;2023-07-13T01:27:14;50050.81;;;-136.69;77.41
21879;BME280;27908;42.708;23.278;2023-07-13T01:29:43;50044.91;;;-136.69;77.39
21879;BME280;27908;42.708;23.278;2023-07-13T01:32:14;49999.63;;;-136.69;77.57
21879;BME280;27908;42.708;23.278;2023-07-13T01:34:40;50019.31;;;-136.69;77.45
21879;BME280;27908;42.708;23.278;2023-07-13T01:37:10;50009.47;;;-136.69;76.85
21879;BME280;27908;42.708;23.278;2023-07-13T01:39:36;50027.19;;;-136.69;77.28
21879;BME280;27908;42.708;23.278;2023-07-13T01:42:03;50023.25;;;-136.69;77.59
21879;BME280;27908;42.708;23.278;2023-07-13T01:44:28;50013.41;;;-136.69;77.79
21879;BME280;27908;42.708;23.278;2023-07-13T01:46:54;50025.22;;;-136.69;78.16
21879;BME280;27908;42.708;23.278;2023-07-13T01:49:19;50005.53;;;-136.69;78.07
21879;BME280;27908;42.708;23.278;2023-07-13T01:51:45;50023.25;;;-136.69;77.68
21879;BME280;27908;42.708;23.278;2023-07-13T01:54:10;50025.22;;;-136.69;78.19
21879;BME280;27908;42.708;23.278;2023-07-13T01:56:36;50003.56;;;-136.69;77.86
21879;BME280;27908;42.708;23.278;2023-07-13T01:59:01;50027.19;;;-136.69;78.26
21879;BME280;27908;42.708;23.278;2023-07-13T02:01:27;50017.34;;;-136.69;78.30
21879;BME280;27908;42.708;23.278;2023-07-13T02:03:52;49997.66;;;-136.69;78.33
21879;BME280;27908;42.708;23.278;2023-07-13T02:06:18;50027.19;;;-136.69;79.26
21879;BME280;27908;42.708;23.278;2023-07-13T02:08:43;49997.66;;;-136.69;79.52
21879;BME280;27908;42.708;23.278;2023-07-13T02:11:09;49981.91;;;-136.69;80.34
21879;BME280;27908;42.708;23.278;2023-07-13T02:13:34;50009.47;;;-136.69;80.41
21879;BME280;27908;42.708;23.278;2023-07-13T02:16:00;50011.44;;;-136.69;80.56
21879;BME280;27908;42.708;23.278;2023-07-13T02:18:26;50009.47;;;-136.69;81.51
21879;BME280;27908;42.708;23.278;2023-07-13T02:20:51;50015.38;;;-136.69;81.61
21879;BME280;27908;42.708;23.278;2023-07-13T02:23:16;49987.81;;;-136.69;81.79
21879;BME280;27908;42.708;23.278;2023-07-13T02:25:42;49970.09;;;-136.69;82.10
21879;BME280;27908;42.708;23.278;2023-07-13T02:28:07;49983.88;;;-136.69;81.68
21879;BME280;27908;42.708;23.278;2023-07-13T02:30:34;50074.44;;;-136.69;82.25
21879;BME280;27908;42.708;23.278;2023-07-13T02:32:59;49989.78;;;-136.69;82.47
21879;BME280;27908;42.708;23.278;2023-07-13T02:35:25;49987.81;;;-136.69;82.37
21879;BME280;27908;42.708;23.278;2023-07-13T02:37:50;50003.56;;;-136.69;82.02
21879;BME280;27908;42.708;23.278;2023-07-13T02:40:16;49972.06;;;-136.69;82.86
21879;BME280;27908;42.708;23.278;2023-07-13T02:42:41;49995.69;;;-136.69;85.03
21879;BME280;27908;42.708;23.278;2023-07-13T02:45:08;50007.50;;;-136.69;84.39
21879;BME280;27908;42.708;23.278;2023-07-13T02:47:34;49977.97;;;-136.69;84.54
21879;BME280;27908;42.708;23.278;2023-07-13T02:50:00;49981.91;;;-136.69;86.14
21879;BME280;27908;42.708;23.278;2023-07-13T02:52:26;50033.09;;;-136.69;85.97
21879;BME280;27908;42.708;23.278;2023-07-13T02:54:51;49985.84;;;-136.69;85.89
21879;BME280;27908;42.708;23.278;2023-07-13T02:57:17;49948.44;;;-136.69;86.04
21879;BME280;27908;42.708;23.278;2023-07-13T02:59:42;49968.13;;;-136.69;86.93
21879;BME280;27908;42.708;23.278;2023-07-13T03:02:08;49958.28;;;-136.69;86.95
21879;BME280;27908;42.708;23.278;2023-07-13T03:04:35;50015.38;;;-136.69;88.20
21879;BME280;27908;42.708;23.278;2023-07-13T03:07:01;49958.28;;;-136.69;88.00
21879;BME280;27908;42.708;23.278;2023-07-13T03:09:26;49942.53;;;-136.69;88.08
21879;BME280;27908;42.708;23.278;2023-07-13T03:11:53;49934.66;;;-136.69;88.89
21879;BME280;27908;42.708;23.278;2023-07-13T03:14:20;49979.94;;;-136.69;88.91
21879;BME280;27908;42.708;23.278;2023-07-13T03:16:45;49968.13;;;-136.69;89.44
21879;BME280;27908;42.708;23.278;2023-07-13T03:19:10;49928.75;;;-136.69;89.34
21879;BME280;27908;42.708;23.278;2023-07-13T03:21:36;49960.25;;;-136.69;89.66
21879;BME280;27908;42.708;23.278;2023-07-13T03:24:01;49946.47;;;-136.69;89.46
21879;BME280;27908;42.708;23.278;2023-07-13T03:26:27;49962.22;;;-136.69;89.34
21879;BME280;27908;42.708;23.278;2023-07-13T03:28:52;49970.09;;;-136.69;89.11
21879;BME280;27908;42.708;23.278;2023-07-13T03:31:23;50027.19;;;-136.69;89.10
21879;BME280;27908;42.708;23.278;2023-07-13T03:33:48;49964.19;;;-136.69;89.00
21879;BME280;27908;42.708;23.278;2023-07-13T03:36:18;49993.72;;;-136.69;88.94
21879;BME280;27908;42.708;23.278;2023-07-13T03:38:49;49954.34;;;-136.69;88.68
21879;BME280;27908;42.708;23.278;2023-07-13T03:41:15;49991.75;;;-136.69;88.54
21879;BME280;27908;42.708;23.278;2023-07-13T03:43:41;49993.72;;;-136.69;88.26
21879;BME280;27908;42.708;23.278;2023-07-13T03:46:07;49989.78;;;-136.69;88.18
21879;BME280;27908;42.708;23.278;2023-07-13T03:48:32;50023.25;;;-136.69;87.88
21879;BME280;27908;42.708;23.278;2023-07-13T03:50:58;50001.59;;;-136.69;87.84
21879;BME280;27908;42.708;23.278;2023-07-13T03:53:23;49997.66;;;-136.69;87.83
21879;BME280;27908;42.708;23.278;2023-07-13T03:55:48;50025.22;;;-136.69;87.83
21879;BME280;27908;42.708;23.278;2023-07-13T04:00:54;50021.28;;;-136.69;88.08
21879;BME280;27908;42.708;23.278;2023-07-13T04:03:20;50037.03;;;-136.69;88.13
21879;BME280;27908;42.708;23.278;2023-07-13T04:05:45;50035.06;;;-136.69;87.22
21879;BME280;27908;42.708;23.278;2023-07-13T04:08:11;50076.41;;;-136.69;86.47
21879;BME280;27908;42.708;23.278;2023-07-13T04:10:36;50066.56;;;-136.69;86.62
21879;BME280;27908;42.708;23.278;2023-07-13T04:13:04;50070.50;;;-136.69;86.21
21879;BME280;27908;42.708;23.278;2023-07-13T04:15:31;50027.19;;;-136.69;85.84
21879;BME280;27908;42.708;23.278;2023-07-13T04:17:56;50072.47;;;-136.69;85.04
21879;BME280;27908;42.708;23.278;2023-07-13T04:20:22;50078.38;;;-136.69;84.69
21879;BME280;27908;42.708;23.278;2023-07-13T04:22:47;50072.47;;;-136.69;84.47
21879;BME280;27908;42.708;23.278;2023-07-13T04:25:13;50074.44;;;-136.69;84.68
21879;BME280;27908;42.708;23.278;2023-07-13T04:27:38;50090.19;;;-136.69;84.13
21879;BME280;27908;42.708;23.278;2023-07-13T04:30:06;50092.16;;;-136.69;84.09
21879;BME280;27908;42.708;23.278;2023-07-13T04:32:31;50074.44;;;-136.69;83.28
21879;BME280;27908;42.708;23.278;2023-07-13T04:34:57;50092.16;;;-136.69;81.92
21879;BME280;27908;42.708;23.278;2023-07-13T04:37:27;50105.94;;;-136.69;81.76
21879;BME280;27908;42.708;23.278;2023-07-13T04:39:52;50090.19;;;-136.69;80.06
21879;BME280;27908;42.708;23.278;2023-07-13T04:42:18;50103.97;;;-136.69;79.90
21879;BME280;27908;42.708;23.278;2023-07-13T04:44:50;50147.31;;;-136.69;78.00
21879;BME280;27908;42.708;23.278;2023-07-13T04:47:16;50131.56;;;-136.69;75.93
21879;BME280;27908;42.708;23.278;2023-07-13T04:49:41;50147.31;;;-136.69;75.37
21879;BME280;27908;42.708;23.278;2023-07-13T04:52:07;50180.78;;;-136.69;74.42
21879;BME280;27908;42.708;23.278;2023-07-13T04:54:33;50174.88;;;-136.69;75.15
21879;BME280;27908;42.708;23.278;2023-07-13T04:56:59;50170.94;;;-136.69;75.16
21879;BME280;27908;42.708;23.278;2023-07-13T04:59:25;50190.63;;;-136.69;73.62
21879;BME280;27908;42.708;23.278;2023-07-13T05:01:50;50192.59;;;-136.69;72.68
21879;BME280;27908;42.708;23.278;2023-07-13T05:04:16;50192.59;;;-136.69;71.60
21879;BME280;27908;42.708;23.278;2023-07-13T05:06:41;50174.88;;;-136.69;71.40
21879;BME280;27908;42.708;23.278;2023-07-13T05:09:07;50230.00;;;-136.69;70.42
21879;BME280;27908;42.708;23.278;2023-07-13T05:11:32;50216.22;;;-136.69;70.16
21879;BME280;27908;42.708;23.278;2023-07-13T05:13:58;50224.09;;;-136.69;70.27
21879;BME280;27908;42.708;23.278;2023-07-13T05:16:23;50237.88;;;-136.69;69.23
21879;BME280;27908;42.708;23.278;2023-07-13T05:18:49;50265.44;;;-136.69;68.84
21879;BME280;27908;42.708;23.278;2023-07-13T05:21:14;50253.63;;;-136.69;68.18
21879;BME280;27908;42.708;23.278;2023-07-13T05:23:40;50265.44;;;-136.69;67.88
21879;BME280;27908;42.708;23.278;2023-07-13T05:26:07;50257.56;;;-136.69;67.82
21879;BME280;27908;42.708;23.278;2023-07-13T05:28:32;50269.38;;;-136.69;65.65
21879;BME280;27908;42.708;23.278;2023-07-13T05:30:58;50285.13;;;-136.69;65.64
21879;BME280;27908;42.708;23.278;2023-07-13T05:33:24;50296.97;;;-136.69;65.15
21879;BME280;27908;42.708;23.278;2023-07-13T05:35:50;50328.47;;;-136.69;64.39
21879;BME280;27908;42.708;23.278;2023-07-13T05:38:16;50358.00;;;-136.69;62.00
21879;BME280;27908;42.708;23.278;2023-07-13T05:40:46;50352.09;;;-136.69;60.86
21879;BME280;27908;42.708;23.278;2023-07-13T05:43:12;50342.25;;;-136.69;60.62
21879;BME280;27908;42.708;23.278;2023-07-13T05:45:37;50377.69;;;-136.69;60.48
21879;BME280;27908;42.708;23.278;2023-07-13T05:48:03;50391.47;;;-136.69;59.45
21879;BME280;27908;42.708;23.278;2023-07-13T05:50:28;50387.53;;;-136.69;58.67
21879;BME280;27908;42.708;23.278;2023-07-13T05:52:53;50407.22;;;-136.69;58.42
21879;BME280;27908;42.708;23.278;2023-07-13T05:55:19;50444.66;;;-136.69;59.01
21879;BME280;27908;42.708;23.278;2023-07-13T05:57:45;50424.94;;;-136.69;57.72
21879;BME280;27908;42.708;23.278;2023-07-13T06:00:11;50373.75;;;-136.69;59.97
21879;BME280;27908;42.708;23.278;2023-07-13T06:02:36;50454.50;;;-136.69;57.22
21879;BME280;27908;42.708;23.278;2023-07-13T06:05:02;50413.13;;;-136.69;57.02
21879;BME280;27908;42.708;23.278;2023-07-13T06:07:28;50460.41;;;-136.69;56.40
21879;BME280;27908;42.708;23.278;2023-07-13T06:09:53;50446.63;;;-136.69;55.57
21879;BME280;27908;42.708;23.278;2023-07-13T06:12:18;50495.84;;;-136.69;55.48
21879;BME280;27908;42.708;23.278;2023-07-13T06:14:44;50554.91;;;-136.69;54.82
21879;BME280;27908;42.708;23.278;2023-07-13T06:17:09;50521.44;;;-136.69;55.38
21879;BME280;27908;42.708;23.278;2023-07-13T06:19:35;50535.22;;;-136.69;53.77
21879;BME280;27908;42.708;23.278;2023-07-13T06:22:00;50537.19;;;-136.69;52.92
21879;BME280;27908;42.708;23.278;2023-07-13T06:24:26;50608.09;;;-136.69;52.11
21879;BME280;27908;42.708;23.278;2023-07-13T06:26:51;50556.88;;;-136.69;53.79
21879;BME280;27908;42.708;23.278;2023-07-13T06:29:17;50578.56;;;-136.69;53.36
21879;BME280;27908;42.708;23.278;2023-07-13T06:31:42;50588.41;;;-136.69;52.46
21879;BME280;27908;42.708;23.278;2023-07-13T06:34:08;50596.28;;;-136.69;52.64
21879;BME280;27908;42.708;23.278;2023-07-13T06:36:33;50592.34;;;-136.69;52.29
21879;BME280;27908;42.708;23.278;2023-07-13T06:38:58;50594.31;;;-136.69;50.52
21879;BME280;27908;42.708;23.278;2023-07-13T06:41:24;50619.91;;;-136.69;49.90
21879;BME280;27908;42.708;23.278;2023-07-13T06:43:52;50598.25;;;-136.69;49.98
21879;BME280;27908;42.708;23.278;2023-07-13T06:46:21;50621.88;;;-136.69;50.02
21879;BME280;27908;42.708;23.278;2023-07-13T06:48:46;50619.91;;;-136.69;48.62
21879;BME280;27908;42.708;23.278;2023-07-13T06:51:12;50629.75;;;-136.69;49.07
21879;BME280;27908;42.708;23.278;2023-07-13T06:53:37;50635.66;;;-136.69;48.52
21879;BME280;27908;42.708;23.278;2023-07-13T06:56:03;50641.56;;;-136.69;49.47
21879;BME280;27908;42.708;23.278;2023-07-13T06:58:28;50649.44;;;-136.69;49.87
21879;BME280;27908;42.708;23.278;2023-07-13T07:00:54;50653.38;;;-136.69;48.35
21879;BME280;27908;42.708;23.278;2023-07-13T07:03:19;50700.66;;;-136.69;47.22
21879;BME280;27908;42.708;23.278;2023-07-13T07:05:45;50718.38;;;-136.69;45.51
21879;BME280;27908;42.708;23.278;2023-07-13T07:08:11;50712.47;;;-136.69;44.22
21879;BME280;27908;42.708;23.278;2023-07-13T07:10:37;50720.34;;;-136.69;44.88
21879;BME280;27908;42.708;23.278;2023-07-13T07:13:03;50712.47;;;-136.69;44.23
21879;BME280;27908;42.708;23.278;2023-07-13T07:15:29;50740.03;;;-136.69;44.89
21879;BME280;27908;42.708;23.278;2023-07-13T07:17:54;50765.63;;;-136.69;44.15
21879;BME280;27908;42.708;23.278;2023-07-13T07:20:20;50736.09;;;-136.69;43.74
21879;BME280;27908;42.708;23.278;2023-07-13T07:22:46;50755.78;;;-136.69;45.25
21879;BME280;27908;42.708;23.278;2023-07-13T07:25:12;50743.97;;;-136.69;45.29
21879;BME280;27908;42.708;23.278;2023-07-13T07:27:38;50799.13;;;-136.69;44.62
21879;BME280;27908;42.708;23.278;2023-07-13T07:30:04;50822.75;;;-136.69;42.91
21879;BME280;27908;42.708;23.278;2023-07-13T07:32:30;50805.03;;;-136.69;43.46
21879;BME280;27908;42.708;23.278;2023-07-13T07:34:57;50844.41;;;-136.69;44.32
21879;BME280;27908;42.708;23.278;2023-07-13T07:37:22;50846.38;;;-136.69;44.79
21879;BME280;27908;42.708;23.278;2023-07-13T07:39:48;50891.69;;;-136.69;41.90
21879;BME280;27908;42.708;23.278;2023-07-13T07:42:13;50864.09;;;-136.69;42.66
21879;BME280;27908;42.708;23.278;2023-07-13T07:44:40;50891.69;;;-136.69;41.42
21879;BME280;27908;42.708;23.278;2023-07-13T07:47:07;50903.50;;;-136.69;41.02
21879;BME280;27908;42.708;23.278;2023-07-13T07:49:32;50958.63;;;-136.69;41.89
21879;BME280;27908;42.708;23.278;2023-07-13T07:51:58;50915.31;;;-136.69;41.45
21879;BME280;27908;42.708;23.278;2023-07-13T07:54:23;51001.97;;;-136.69;40.71
21879;BME280;27908;42.708;23.278;2023-07-13T07:56:48;51009.84;;;-136.69;43.34
21879;BME280;27908;42.708;23.278;2023-07-13T07:59:14;50978.34;;;-136.69;40.81
21879;BME280;27908;42.708;23.278;2023-07-13T08:01:39;51005.91;;;-136.69;39.63
21879;BME280;27908;42.708;23.278;2023-07-13T08:04:05;51021.66;;;-136.69;40.68
21879;BME280;27908;42.708;23.278;2023-07-13T08:06:32;51039.38;;;-136.69;40.20
21879;BME280;27908;42.708;23.278;2023-07-13T08:08:58;51057.13;;;-136.69;42.48
21879;BME280;27908;42.708;23.278;2023-07-13T08:11:24;51063.03;;;-136.69;40.27
21879;BME280;27908;42.708;23.278;2023-07-13T08:13:50;51074.84;;;-136.69;39.38
21879;BME280;27908;42.708;23.278;2023-07-13T08:16:15;51143.78;;;-136.69;39.55
21879;BME280;27908;42.708;23.278;2023-07-13T08:18:41;51128.03;;;-136.69;38.68
21879;BME280;27908;42.708;23.278;2023-07-13T08:21:07;51191.03;;;-136.69;39.73
21879;BME280;27908;42.708;23.278;2023-07-13T08:23:34;51177.25;;;-136.69;38.91
21879;BME280;27908;42.708;23.278;2023-07-13T08:25:59;51159.53;;;-136.69;38.66
21879;BME280;27908;42.708;23.278;2023-07-13T08:28:27;51230.44;;;-136.69;38.51
21879;BME280;27908;42.708;23.278;2023-07-13T08:30:53;51222.56;;;-136.69;37.13
21879;BME280;27908;42.708;23.278;2023-07-13T08:33:20;51212.72;;;-136.69;37.41
21879;BME280;27908;42.708;23.278;2023-07-13T08:35:46;51252.09;;;-136.69;36.80
21879;BME280;27908;42.708;23.278;2023-07-13T08:38:12;51240.28;;;-136.69;38.51
21879;BME280;27908;42.708;23.278;2023-07-13T08:40:39;51307.25;;;-136.69;38.21
21879;BME280;27908;42.708;23.278;2023-07-13T08:43:09;51326.94;;;-136.69;38.48
21879;BME280;27908;42.708;23.278;2023-07-13T08:46:02;51295.44;;;-136.69;37.01
21879;BME280;27908;42.708;23.278;2023-07-13T08:48:36;51313.16;;;-136.69;36.01
21879;BME280;27908;42.708;23.278;2023-07-13T08:53:49;51356.50;;;-136.69;36.17
21879;BME280;27908;42.708;23.278;2023-07-13T08:56:20;51356.50;;;-136.69;35.62
21879;BME280;27908;42.708;23.278;2023-07-13T08:58:51;51358.47;;;-136.69;36.59
21879;BME280;27908;42.708;23.278;2023-07-13T09:04:16;51405.72;;;-136.69;35.32
21879;BME280;27908;42.708;23.278;2023-07-13T09:12:07;51431.34;;;-136.69;34.03
21879;BME280;27908;42.708;23.278;2023-07-13T09:14:50;51451.03;;;-136.69;35.10
21879;BME280;27908;42.708;23.278;2023-07-13T09:17:18;51484.53;;;-136.69;35.60
21879;BME280;27908;42.708;23.278;2023-07-13T09:19:47;51516.03;;;-136.69;34.56
21879;BME280;27908;42.708;23.278;2023-07-13T09:22:19;51494.38;;;-136.69;33.37
21879;BME280;27908;42.708;23.278;2023-07-13T09:25:04;51512.09;;;-136.69;32.98
21879;BME280;27908;42.708;23.278;2023-07-13T09:27:35;51557.41;;;-136.69;33.61
21879;BME280;27908;42.708;23.278;2023-07-13T09:30:32;51567.25;;;-136.69;33.84
21879;BME280;27908;42.708;23.278;2023-07-13T09:32:59;51590.88;;;-136.69;32.26
21879;BME280;27908;42.708;23.278;2023-07-13T09:35:26;51590.88;;;-136.69;33.59
21879;BME280;27908;42.708;23.278;2023-07-13T09:37:58;51614.53;;;-136.69;33.37
21879;BME280;27908;42.708;23.278;2023-07-13T09:40:38;51657.88;;;-136.69;33.73
21879;BME280;27908;42.708;23.278;2023-07-13T09:43:08;51665.75;;;-136.69;32.72
21879;BME280;27908;42.708;23.278;2023-07-13T09:45:36;51701.19;;;-136.69;33.71
21879;BME280;27908;42.708;23.278;2023-07-13T09:48:13;51740.59;;;-136.69;34.14
21879;BME280;27908;42.708;23.278;2023-07-13T09:50:39;51787.88;;;-136.69;30.15
21879;BME280;27908;42.708;23.278;2023-07-13T09:53:12;51791.81;;;-136.69;27.12
21879;BME280;27908;42.708;23.278;2023-07-13T09:55:39;51819.41;;;-136.69;28.76
21879;BME280;27908;42.708;23.278;2023-07-13T09:58:18;51850.91;;;-136.69;27.28
21879;BME280;27908;42.708;23.278;2023-07-13T10:00:55;51900.16;;;-136.69;27.04
21879;BME280;27908;42.708;23.278;2023-07-13T10:03:27;51913.94;;;-136.69;26.82
21879;BME280;27908;42.708;23.278;2023-07-13T10:05:53;51892.28;;;-136.69;25.40
21879;BME280;27908;42.708;23.278;2023-07-13T10:08:27;51947.44;;;-136.69;27.99
21879;BME280;27908;42.708;23.278;2023-07-13T10:11:11;51955.31;;;-136.69;25.11
21879;BME280;27908;42.708;23.278;2023-07-13T10:13:43;51915.91;;;-136.69;25.31
21879;BME280;27908;42.708;23.278;2023-07-13T10:16:10;52030.19;;;-136.69;26.42
21879;BME280;27908;42.708;23.278;2023-07-13T10:21:19;52042.00;;;-136.69;28.19
21879;BME280;27908;42.708;23.278;2023-07-13T10:23:54;52101.09;;;-136.69;26.36
21879;BME280;27908;42.708;23.278;2023-07-13T10:26:26;52138.53;;;-136.69;24.62
21879;BME280;27908;42.708;23.278;2023-07-13T10:28:57;52089.28;;;-136.69;24.18
21879;BME280;27908;42.708;23.278;2023-07-13T10:31:24;52091.25;;;-136.69;23.59
21879;BME280;27908;42.708;23.278;2023-07-13T10:33:50;52075.50;;;-136.69;24.53
21879;BME280;27908;42.708;23.278;2023-07-13T10:38:58;52132.63;;;-136.69;24.44
21879;BME280;27908;42.708;23.278;2023-07-13T10:41:27;52097.16;;;-136.69;24.86
21879;BME280;27908;42.708;23.278;2023-07-13T10:43:56;52175.97;;;-136.69;24.06
21879;BME280;27908;42.708;23.278;2023-07-13T10:46:25;52085.34;;;-136.69;23.23
21879;BME280;27908;42.708;23.278;2023-07-13T10:48:58;52146.41;;;-136.69;24.63
21879;BME280;27908;42.708;23.278;2023-07-13T10:51:25;52103.06;;;-136.69;22.40
21879;BME280;27908;42.708;23.278;2023-07-13T10:54:16;52168.06;;;-136.69;23.99
21879;BME280;27908;42.708;23.278;2023-07-13T10:56:43;52179.91;;;-136.69;23.22
21879;BME280;27908;42.708;23.278;2023-07-13T11:01:57;52193.69;;;-136.69;22.27
21879;BME280;27908;42.708;23.278;2023-07-13T11:04:25;52219.31;;;-136.69;22.78
21879;BME280;27908;42.708;23.278;2023-07-13T11:06:56;52223.25;;;-136.69;22.10
21879;BME280;27908;42.708;23.278;2023-07-13T11:09:39;52235.06;;;-136.69;22.15
21879;BME280;27908;42.708;23.278;2023-07-13T11:17:46;52209.44;;;-136.69;22.35
21879;BME280;27908;42.708;23.278;2023-07-13T11:22:48;52233.09;;;-136.69;22.01
21879;BME280;27908;42.708;23.278;2023-07-13T11:25:21;52242.94;;;-136.69;22.84
21879;BME280;27908;42.708;23.278;2023-07-13T11:36:18;52315.84;;;-136.69;23.39
21879;BME280;27908;42.708;23.278;2023-07-13T11:38:55;52294.16;;;-136.69;22.58
21879;BME280;27908;42.708;23.278;2023-07-13T11:41:37;52307.97;;;-136.69;23.36
21879;BME280;27908;42.708;23.278;2023-07-13T11:44:18;52323.72;;;-136.69;23.02
21879;BME280;27908;42.708;23.278;2023-07-13T11:46:50;52315.84;;;-136.69;23.38
21879;BME280;27908;42.708;23.278;2023-07-13T11:49:20;52380.84;;;-136.69;22.63
21879;BME280;27908;42.708;23.278;2023-07-13T11:51:46;52414.34;;;-136.69;23.99
21879;BME280;27908;42.708;23.278;2023-07-13T11:54:33;52441.94;;;-136.69;24.41
21879;BME280;27908;42.708;23.278;2023-07-13T11:57:23;52416.31;;;-136.69;24.00
21879;BME280;27908;42.708;23.278;2023-07-13T11:59:52;52453.75;;;-136.69;23.32
21879;BME280;27908;42.708;23.278;2023-07-13T12:02:38;52514.81;;;-136.69;23.62
21879;BME280;27908;42.708;23.278;2023-07-13T12:05:05;52562.13;;;-136.69;23.55
21879;BME280;27908;42.708;23.278;2023-07-13T12:07:32;52530.59;;;-136.69;22.98
21879;BME280;27908;42.708;23.278;2023-07-13T12:10:22;52560.13;;;-136.69;21.97
21879;BME280;27908;42.708;23.278;2023-07-13T12:12:57;52583.78;;;-136.69;22.40
21879;BME280;27908;42.708;23.278;2023-07-13T12:15:27;52554.22;;;-136.69;21.62
21879;BME280;27908;42.708;23.278;2023-07-13T12:17:53;52550.28;;;-136.69;22.89
21879;BME280;27908;42.708;23.278;2023-07-13T12:20:34;52491.19;;;-136.69;23.00
21879;BME280;27908;42.708;23.278;2023-07-13T12:23:05;52575.91;;;-136.69;24.17
21879;BME280;27908;42.708;23.278;2023-07-13T12:25:31;52664.56;;;-136.69;23.91
21879;BME280;27908;42.708;23.278;2023-07-13T12:27:57;52635.00;;;-136.69;22.58
21879;BME280;27908;42.708;23.278;2023-07-13T12:30:30;52676.38;;;-136.69;21.88
21879;BME280;27908;42.708;23.278;2023-07-13T12:33:11;52668.50;;;-136.69;22.15
21879;BME280;27908;42.708;23.278;2023-07-13T12:35:49;52717.75;;;-136.69;21.22
21879;BME280;27908;42.708;23.278;2023-07-13T12:38:17;52735.50;;;-136.69;22.47
21879;BME280;27908;42.708;23.278;2023-07-13T12:40:43;52717.75;;;-136.69;21.70
21879;BME280;27908;42.708;23.278;2023-07-13T12:43:13;52786.72;;;-136.69;21.53
21879;BME280;27908;42.708;23.278;2023-07-13T12:48:28;52887.22;;;-136.69;20.92
21879;BME280;27908;42.708;23.278;2023-07-13T12:50:55;53011.34;;;-136.69;20.82
21879;BME280;27908;42.708;23.278;2023-07-13T12:53:28;53088.22;;;-136.69;21.06
21879;BME280;27908;42.708;23.278;2023-07-13T12:55:58;53236.00;;;-136.69;18.91
21879;BME280;27908;42.708;23.278;2023-07-13T12:58:30;53472.47;;;-136.69;20.03
21879;BME280;27908;42.708;23.278;2023-07-13T13:00:59;53557.22;;;-136.69;18.95
21879;BME280;27908;42.708;23.278;2023-07-13T13:03:37;53791.75;;;-136.69;18.91
21879;BME280;27908;42.708;23.278;2023-07-13T13:06:20;53977.00;;;-136.69;18.30
21879;BME280;27908;42.708;23.278;2023-07-13T13:08:48;54331.81;;;-136.69;18.85
21879;BME280;27908;42.708;23.278;2023-07-13T13:11:18;54568.34;;;-136.69;16.48
21879;BME280;27908;42.708;23.278;2023-07-13T13:13:44;54781.25;;;-136.69;16.52
21879;BME280;27908;42.708;23.278;2023-07-13T13:18:51;55002.06;;;-136.69;15.49
21879;BME280;27908;42.708;23.278;2023-07-13T13:21:17;54842.38;;;-136.69;15.13